sensor_id;sensor_type;location;lat;lon;timestamp;P1;durP1;ratioP1;P2;durP2;ratioP2
4389;SDS011;2209;48.982;8.406;2022-12-18T00:01:13;62.43;;;37.13;;
4389;SDS011;2209;48.982;8.406;2022-12-18T00:03:36;68.23;;;38.07;;
4389;SDS011;2209;48.982;8.406;2022-12-18T00:05:58;70.77;;;38.07;;
4389;SDS011;2209;48.982;8.406;2022-12-18T00:08:22;69.33;;;36.97;;
4389;SDS011;2209;48.982;8.406;2022-12-18T00:10:44;74.17;;;38.40;;
4389;SDS011;2209;48.982;8.406;2022-12-18T00:13:06;67.53;;;36.87;;
4389;SDS011;2209;48.982;8.406;2022-12-18T00:15:29;66.27;;;37.07;;
4389;SDS011;2209;48.982;8.406;2022-12-18T00:17:51;67.07;;;38.90;;
4389;SDS011;2209;48.982;8.406;2022-12-18T00:20:13;66.77;;;36.70;;
4389;SDS011;2209;48.982;8.406;2022-12-18T00:22:35;61.87;;;33.80;;
4389;SDS011;2209;48.982;8.406;2022-12-18T00:24:59;66.60;;;36.87;;
4389;SDS011;2209;48.982;8.406;2022-12-18T00:27:21;64.13;;;36.77;;
4389;SDS011;2209;48.982;8.406;2022-12-18T00:29:43;65.63;;;36.43;;
4389;SDS011;2209;48.982;8.406;2022-12-18T00:32:05;66.00;;;36.53;;
4389;SDS011;2209;48.982;8.406;2022-12-18T00:34:27;63.50;;;37.30;;
4389;SDS011;2209;48.982;8.406;2022-12-18T00:36:49;58.03;;;35.67;;
4389;SDS011;2209;48.982;8.406;2022-12-18T00:39:11;56.27;;;33.20;;
4389;SDS011;2209;48.982;8.406;2022-12-18T00:41:34;63.70;;;36.00;;
4389;SDS011;2209;48.982;8.406;2022-12-18T00:44:15;67.33;;;39.37;;
4389;SDS011;2209;48.982;8.406;2022-12-18T00:46:39;69.20;;;38.90;;
4389;SDS011;2209;48.982;8.406;2022-12-18T00:49:02;68.50;;;37.03;;
4389;SDS011;2209;48.982;8.406;2022-12-18T00:51:24;66.97;;;39.00;;
4389;SDS011;2209;48.982;8.406;2022-12-18T00:53:47;75.83;;;35.90;;
4389;SDS011;2209;48.982;8.406;2022-12-18T00:56:09;72.17;;;39.37;;
4389;SDS011;2209;48.982;8.406;2022-12-18T00:58:35;77.20;;;39.03;;
4389;SDS011;2209;48.982;8.406;2022-12-18T01:00:57;81.90;;;38.33;;
4389;SDS011;2209;48.982;8.406;2022-12-18T01:03:19;73.63;;;38.90;;
4389;SDS011;2209;48.982;8.406;2022-12-18T01:05:41;63.70;;;35.97;;
4389;SDS011;2209;48.982;8.406;2022-12-18T01:08:03;73.53;;;40.03;;
4389;SDS011;2209;48.982;8.406;2022-12-18T01:10:26;66.73;;;37.20;;
4389;SDS011;2209;48.982;8.406;2022-12-18T01:12:48;67.50;;;37.33;;
4389;SDS011;2209;48.982;8.406;2022-12-18T01:15:11;69.47;;;37.17;;
4389;SDS011;2209;48.982;8.406;2022-12-18T01:17:35;67.33;;;35.97;;
4389;SDS011;2209;48.982;8.406;2022-12-18T01:19:58;71.50;;;39.40;;
4389;SDS011;2209;48.982;8.406;2022-12-18T01:22:20;73.13;;;37.50;;
4389;SDS011;2209;48.982;8.406;2022-12-18T01:24:42;73.63;;;38.37;;
4389;SDS011;2209;48.982;8.406;2022-12-18T01:27:04;74.93;;;39.83;;
4389;SDS011;2209;48.982;8.406;2022-12-18T01:29:26;68.07;;;36.47;;
4389;SDS011;2209;48.982;8.406;2022-12-18T01:31:50;66.10;;;36.40;;
4389;SDS011;2209;48.982;8.406;2022-12-18T01:34:12;61.47;;;37.07;;
4389;SDS011;2209;48.982;8.406;2022-12-18T01:36:35;76.40;;;38.43;;
4389;SDS011;2209;48.982;8.406;2022-12-18T01:38:59;63.40;;;35.60;;
4389;SDS011;2209;48.982;8.406;2022-12-18T01:41:23;64.73;;;36.10;;
4389;SDS011;2209;48.982;8.406;2022-12-18T01:43:48;59.40;;;36.17;;
4389;SDS011;2209;48.982;8.406;2022-12-18T01:46:12;69.77;;;36.03;;
4389;SDS011;2209;48.982;8.406;2022-12-18T01:48:36;81.17;;;39.37;;
4389;SDS011;2209;48.982;8.406;2022-12-18T01:51:00;71.30;;;39.57;;
4389;SDS011;2209;48.982;8.406;2022-12-18T01:53:22;71.83;;;40.07;;
4389;SDS011;2209;48.982;8.406;2022-12-18T01:55:49;66.57;;;37.60;;
4389;SDS011;2209;48.982;8.406;2022-12-18T01:58:14;74.17;;;40.43;;
4389;SDS011;2209;48.982;8.406;2022-12-18T02:00:37;69.50;;;39.43;;
4389;SDS011;2209;48.982;8.406;2022-12-18T02:02:59;67.60;;;38.67;;
4389;SDS011;2209;48.982;8.406;2022-12-18T02:05:26;75.47;;;38.27;;
4389;SDS011;2209;48.982;8.406;2022-12-18T02:07:57;63.90;;;37.13;;
4389;SDS011;2209;48.982;8.406;2022-12-18T02:10:29;76.83;;;39.40;;
4389;SDS011;2209;48.982;8.406;2022-12-18T02:13:02;77.77;;;38.80;;
4389;SDS011;2209;48.982;8.406;2022-12-18T02:15:34;71.43;;;38.23;;
4389;SDS011;2209;48.982;8.406;2022-12-18T02:18:02;69.33;;;37.93;;
4389;SDS011;2209;48.982;8.406;2022-12-18T02:20:32;76.10;;;38.67;;
4389;SDS011;2209;48.982;8.406;2022-12-18T02:23:01;69.03;;;36.40;;
4389;SDS011;2209;48.982;8.406;2022-12-18T02:25:33;77.30;;;38.90;;
4389;SDS011;2209;48.982;8.406;2022-12-18T02:28:05;68.10;;;37.53;;
4389;SDS011;2209;48.982;8.406;2022-12-18T02:30:30;73.20;;;38.10;;
4389;SDS011;2209;48.982;8.406;2022-12-18T02:32:55;77.27;;;39.60;;
4389;SDS011;2209;48.982;8.406;2022-12-18T02:35:20;67.60;;;36.23;;
4389;SDS011;2209;48.982;8.406;2022-12-18T02:37:45;77.27;;;37.30;;
4389;SDS011;2209;48.982;8.406;2022-12-18T02:40:09;66.37;;;35.67;;
4389;SDS011;2209;48.982;8.406;2022-12-18T02:42:33;66.90;;;34.30;;
4389;SDS011;2209;48.982;8.406;2022-12-18T02:44:57;65.13;;;36.00;;
4389;SDS011;2209;48.982;8.406;2022-12-18T02:47:20;58.83;;;35.00;;
4389;SDS011;2209;48.982;8.406;2022-12-18T02:49:46;65.00;;;34.67;;
4389;SDS011;2209;48.982;8.406;2022-12-18T02:52:17;52.57;;;32.07;;
4389;SDS011;2209;48.982;8.406;2022-12-18T02:54:49;61.30;;;33.23;;
4389;SDS011;2209;48.982;8.406;2022-12-18T02:57:18;61.47;;;32.93;;
4389;SDS011;2209;48.982;8.406;2022-12-18T02:59:45;67.50;;;34.90;;
4389;SDS011;2209;48.982;8.406;2022-12-18T03:02:17;61.37;;;33.53;;
4389;SDS011;2209;48.982;8.406;2022-12-18T03:04:46;66.03;;;36.20;;
4389;SDS011;2209;48.982;8.406;2022-12-18T03:07:15;57.13;;;33.73;;
4389;SDS011;2209;48.982;8.406;2022-12-18T03:09:42;65.00;;;33.70;;
4389;SDS011;2209;48.982;8.406;2022-12-18T03:12:09;65.27;;;35.33;;
4389;SDS011;2209;48.982;8.406;2022-12-18T03:14:44;61.80;;;33.23;;
4389;SDS011;2209;48.982;8.406;2022-12-18T03:17:13;59.00;;;34.23;;
4389;SDS011;2209;48.982;8.406;2022-12-18T03:19:40;63.03;;;33.40;;
4389;SDS011;2209;48.982;8.406;2022-12-18T03:22:04;59.20;;;34.47;;
4389;SDS011;2209;48.982;8.406;2022-12-18T03:24:29;62.83;;;35.00;;
4389;SDS011;2209;48.982;8.406;2022-12-18T03:26:54;65.70;;;35.30;;
4389;SDS011;2209;48.982;8.406;2022-12-18T03:29:23;73.53;;;36.50;;
4389;SDS011;2209;48.982;8.406;2022-12-18T03:31:49;57.90;;;34.37;;
4389;SDS011;2209;48.982;8.406;2022-12-18T03:34:17;62.37;;;33.87;;
4389;SDS011;2209;48.982;8.406;2022-12-18T03:36:44;59.97;;;33.47;;
4389;SDS011;2209;48.982;8.406;2022-12-18T03:39:06;56.13;;;33.37;;
4389;SDS011;2209;48.982;8.406;2022-12-18T03:41:29;59.57;;;33.50;;
4389;SDS011;2209;48.982;8.406;2022-12-18T03:43:55;56.00;;;32.30;;
4389;SDS011;2209;48.982;8.406;2022-12-18T03:46:26;63.60;;;34.80;;
4389;SDS011;2209;48.982;8.406;2022-12-18T03:48:52;56.07;;;31.60;;
4389;SDS011;2209;48.982;8.406;2022-12-18T03:51:24;66.67;;;34.20;;
4389;SDS011;2209;48.982;8.406;2022-12-18T03:53:50;63.10;;;33.50;;
4389;SDS011;2209;48.982;8.406;2022-12-18T03:56:15;60.73;;;36.10;;
4389;SDS011;2209;48.982;8.406;2022-12-18T03:58:39;58.33;;;34.30;;
4389;SDS011;2209;48.982;8.406;2022-12-18T04:01:04;68.70;;;37.47;;
4389;SDS011;2209;48.982;8.406;2022-12-18T04:03:33;60.80;;;33.20;;
4389;SDS011;2209;48.982;8.406;2022-12-18T04:05:56;65.63;;;34.37;;
4389;SDS011;2209;48.982;8.406;2022-12-18T04:08:22;74.93;;;35.87;;
4389;SDS011;2209;48.982;8.406;2022-12-18T04:10:46;67.77;;;36.30;;
4389;SDS011;2209;48.982;8.406;2022-12-18T04:13:08;64.00;;;34.03;;
4389;SDS011;2209;48.982;8.406;2022-12-18T04:15:31;68.33;;;34.97;;
4389;SDS011;2209;48.982;8.406;2022-12-18T04:17:56;59.50;;;33.40;;
4389;SDS011;2209;48.982;8.406;2022-12-18T04:20:18;61.00;;;33.07;;
4389;SDS011;2209;48.982;8.406;2022-12-18T04:22:40;65.13;;;33.80;;
4389;SDS011;2209;48.982;8.406;2022-12-18T04:25:04;61.53;;;34.47;;
4389;SDS011;2209;48.982;8.406;2022-12-18T04:27:27;66.30;;;34.07;;
4389;SDS011;2209;48.982;8.406;2022-12-18T04:29:49;68.33;;;34.23;;
4389;SDS011;2209;48.982;8.406;2022-12-18T04:32:11;64.40;;;33.90;;
4389;SDS011;2209;48.982;8.406;2022-12-18T04:34:33;65.87;;;35.73;;
4389;SDS011;2209;48.982;8.406;2022-12-18T04:36:55;58.60;;;34.27;;
4389;SDS011;2209;48.982;8.406;2022-12-18T04:39:18;73.10;;;35.73;;
4389;SDS011;2209;48.982;8.406;2022-12-18T04:41:41;63.53;;;33.00;;
4389;SDS011;2209;48.982;8.406;2022-12-18T04:44:03;69.20;;;35.10;;
4389;SDS011;2209;48.982;8.406;2022-12-18T04:46:25;67.23;;;37.87;;
4389;SDS011;2209;48.982;8.406;2022-12-18T04:48:48;68.33;;;34.37;;
4389;SDS011;2209;48.982;8.406;2022-12-18T04:51:10;60.00;;;33.77;;
4389;SDS011;2209;48.982;8.406;2022-12-18T04:53:32;72.53;;;38.00;;
4389;SDS011;2209;48.982;8.406;2022-12-18T04:56:02;62.13;;;33.30;;
4389;SDS011;2209;48.982;8.406;2022-12-18T04:58:26;59.40;;;32.67;;
4389;SDS011;2209;48.982;8.406;2022-12-18T05:00:48;65.33;;;36.23;;
4389;SDS011;2209;48.982;8.406;2022-12-18T05:03:10;64.77;;;32.20;;
4389;SDS011;2209;48.982;8.406;2022-12-18T05:05:34;66.07;;;33.10;;
4389;SDS011;2209;48.982;8.406;2022-12-18T05:07:56;65.97;;;33.00;;
4389;SDS011;2209;48.982;8.406;2022-12-18T05:10:18;66.77;;;34.23;;
4389;SDS011;2209;48.982;8.406;2022-12-18T05:12:40;67.33;;;36.30;;
4389;SDS011;2209;48.982;8.406;2022-12-18T05:15:17;65.67;;;35.40;;
4389;SDS011;2209;48.982;8.406;2022-12-18T05:17:39;58.83;;;32.40;;
4389;SDS011;2209;48.982;8.406;2022-12-18T05:20:02;67.73;;;33.43;;
4389;SDS011;2209;48.982;8.406;2022-12-18T05:22:24;70.13;;;31.90;;
4389;SDS011;2209;48.982;8.406;2022-12-18T05:24:46;64.57;;;35.87;;
4389;SDS011;2209;48.982;8.406;2022-12-18T05:27:08;62.97;;;32.77;;
4389;SDS011;2209;48.982;8.406;2022-12-18T05:29:30;58.37;;;33.93;;
4389;SDS011;2209;48.982;8.406;2022-12-18T05:31:54;50.17;;;31.23;;
4389;SDS011;2209;48.982;8.406;2022-12-18T05:34:17;52.87;;;29.80;;
4389;SDS011;2209;48.982;8.406;2022-12-18T05:36:39;50.07;;;29.60;;
4389;SDS011;2209;48.982;8.406;2022-12-18T05:39:01;51.17;;;30.03;;
4389;SDS011;2209;48.982;8.406;2022-12-18T05:41:23;51.33;;;29.73;;
4389;SDS011;2209;48.982;8.406;2022-12-18T05:43:45;57.53;;;30.03;;
4389;SDS011;2209;48.982;8.406;2022-12-18T05:46:07;55.50;;;29.50;;
4389;SDS011;2209;48.982;8.406;2022-12-18T05:48:34;56.77;;;30.67;;
4389;SDS011;2209;48.982;8.406;2022-12-18T05:51:02;55.37;;;29.40;;
4389;SDS011;2209;48.982;8.406;2022-12-18T05:53:25;53.97;;;29.20;;
4389;SDS011;2209;48.982;8.406;2022-12-18T05:55:47;54.20;;;29.93;;
4389;SDS011;2209;48.982;8.406;2022-12-18T05:58:10;56.57;;;29.97;;
4389;SDS011;2209;48.982;8.406;2022-12-18T06:00:33;48.80;;;28.50;;
4389;SDS011;2209;48.982;8.406;2022-12-18T06:03:00;59.13;;;30.90;;
4389;SDS011;2209;48.982;8.406;2022-12-18T06:05:23;56.27;;;32.40;;
4389;SDS011;2209;48.982;8.406;2022-12-18T06:07:45;53.17;;;29.77;;
4389;SDS011;2209;48.982;8.406;2022-12-18T06:10:07;56.73;;;30.13;;
4389;SDS011;2209;48.982;8.406;2022-12-18T06:12:30;56.97;;;28.67;;
4389;SDS011;2209;48.982;8.406;2022-12-18T06:14:53;52.80;;;28.97;;
4389;SDS011;2209;48.982;8.406;2022-12-18T06:17:15;58.13;;;31.77;;
4389;SDS011;2209;48.982;8.406;2022-12-18T06:19:37;59.00;;;33.13;;
4389;SDS011;2209;48.982;8.406;2022-12-18T06:22:01;60.67;;;33.03;;
4389;SDS011;2209;48.982;8.406;2022-12-18T06:24:23;59.73;;;31.53;;
4389;SDS011;2209;48.982;8.406;2022-12-18T06:26:45;60.50;;;32.87;;
4389;SDS011;2209;48.982;8.406;2022-12-18T06:29:07;62.63;;;32.97;;
4389;SDS011;2209;48.982;8.406;2022-12-18T06:31:29;58.47;;;32.37;;
4389;SDS011;2209;48.982;8.406;2022-12-18T06:33:52;56.40;;;30.50;;
4389;SDS011;2209;48.982;8.406;2022-12-18T06:36:14;52.50;;;29.00;;
4389;SDS011;2209;48.982;8.406;2022-12-18T06:38:41;54.23;;;29.97;;
4389;SDS011;2209;48.982;8.406;2022-12-18T06:41:05;57.67;;;29.50;;
4389;SDS011;2209;48.982;8.406;2022-12-18T06:43:28;59.27;;;30.83;;
4389;SDS011;2209;48.982;8.406;2022-12-18T06:45:50;53.70;;;29.60;;
4389;SDS011;2209;48.982;8.406;2022-12-18T06:48:13;64.87;;;31.87;;
4389;SDS011;2209;48.982;8.406;2022-12-18T06:50:35;57.57;;;31.93;;
4389;SDS011;2209;48.982;8.406;2022-12-18T06:52:57;55.80;;;30.60;;
4389;SDS011;2209;48.982;8.406;2022-12-18T06:55:20;64.13;;;30.43;;
4389;SDS011;2209;48.982;8.406;2022-12-18T06:57:42;57.80;;;31.00;;
4389;SDS011;2209;48.982;8.406;2022-12-18T07:00:05;55.33;;;31.93;;
4389;SDS011;2209;48.982;8.406;2022-12-18T07:02:28;58.37;;;29.00;;
4389;SDS011;2209;48.982;8.406;2022-12-18T07:04:50;64.13;;;31.80;;
4389;SDS011;2209;48.982;8.406;2022-12-18T07:07:12;61.80;;;31.80;;
4389;SDS011;2209;48.982;8.406;2022-12-18T07:09:34;58.27;;;31.80;;
4389;SDS011;2209;48.982;8.406;2022-12-18T07:11:57;55.43;;;29.80;;
4389;SDS011;2209;48.982;8.406;2022-12-18T07:14:19;61.07;;;30.93;;
4389;SDS011;2209;48.982;8.406;2022-12-18T07:16:42;63.33;;;31.23;;
4389;SDS011;2209;48.982;8.406;2022-12-18T07:19:04;58.00;;;30.40;;
4389;SDS011;2209;48.982;8.406;2022-12-18T07:21:26;54.43;;;29.57;;
4389;SDS011;2209;48.982;8.406;2022-12-18T07:23:48;56.20;;;29.27;;
4389;SDS011;2209;48.982;8.406;2022-12-18T07:26:11;70.90;;;31.20;;
4389;SDS011;2209;48.982;8.406;2022-12-18T07:28:37;57.27;;;30.60;;
4389;SDS011;2209;48.982;8.406;2022-12-18T07:31:02;63.60;;;32.40;;
4389;SDS011;2209;48.982;8.406;2022-12-18T07:33:24;59.40;;;31.07;;
4389;SDS011;2209;48.982;8.406;2022-12-18T07:35:46;72.50;;;31.00;;
4389;SDS011;2209;48.982;8.406;2022-12-18T07:38:08;58.23;;;30.53;;
4389;SDS011;2209;48.982;8.406;2022-12-18T07:40:30;55.60;;;30.10;;
4389;SDS011;2209;48.982;8.406;2022-12-18T07:42:53;63.57;;;29.80;;
4389;SDS011;2209;48.982;8.406;2022-12-18T07:45:16;56.87;;;30.80;;
4389;SDS011;2209;48.982;8.406;2022-12-18T07:47:38;60.00;;;31.57;;
4389;SDS011;2209;48.982;8.406;2022-12-18T07:50:01;53.33;;;29.67;;
4389;SDS011;2209;48.982;8.406;2022-12-18T07:52:23;57.23;;;29.73;;
4389;SDS011;2209;48.982;8.406;2022-12-18T07:54:45;55.63;;;26.77;;
4389;SDS011;2209;48.982;8.406;2022-12-18T07:57:09;68.67;;;29.93;;
4389;SDS011;2209;48.982;8.406;2022-12-18T07:59:32;50.97;;;28.83;;
4389;SDS011;2209;48.982;8.406;2022-12-18T08:01:56;54.00;;;28.90;;
4389;SDS011;2209;48.982;8.406;2022-12-18T08:04:18;66.30;;;30.87;;
4389;SDS011;2209;48.982;8.406;2022-12-18T08:06:40;57.83;;;29.67;;
4389;SDS011;2209;48.982;8.406;2022-12-18T08:09:02;63.07;;;32.10;;
4389;SDS011;2209;48.982;8.406;2022-12-18T08:11:25;59.00;;;30.53;;
4389;SDS011;2209;48.982;8.406;2022-12-18T08:13:49;56.77;;;30.10;;
4389;SDS011;2209;48.982;8.406;2022-12-18T08:16:11;59.20;;;29.63;;
4389;SDS011;2209;48.982;8.406;2022-12-18T08:18:35;56.50;;;29.60;;
4389;SDS011;2209;48.982;8.406;2022-12-18T08:21:06;58.10;;;31.10;;
4389;SDS011;2209;48.982;8.406;2022-12-18T08:23:29;61.30;;;29.97;;
4389;SDS011;2209;48.982;8.406;2022-12-18T08:25:51;60.23;;;30.47;;
4389;SDS011;2209;48.982;8.406;2022-12-18T08:28:16;56.50;;;31.00;;
4389;SDS011;2209;48.982;8.406;2022-12-18T08:30:38;67.43;;;32.27;;
4389;SDS011;2209;48.982;8.406;2022-12-18T08:33:00;64.10;;;31.30;;
4389;SDS011;2209;48.982;8.406;2022-12-18T08:35:24;58.60;;;31.20;;
4389;SDS011;2209;48.982;8.406;2022-12-18T08:37:46;60.07;;;30.60;;
4389;SDS011;2209;48.982;8.406;2022-12-18T08:40:08;57.57;;;30.23;;
4389;SDS011;2209;48.982;8.406;2022-12-18T08:42:34;54.57;;;30.83;;
4389;SDS011;2209;48.982;8.406;2022-12-18T08:45:13;62.97;;;32.83;;
4389;SDS011;2209;48.982;8.406;2022-12-18T08:47:37;61.63;;;29.77;;
4389;SDS011;2209;48.982;8.406;2022-12-18T08:49:59;59.70;;;29.43;;
4389;SDS011;2209;48.982;8.406;2022-12-18T08:52:22;61.33;;;31.00;;
4389;SDS011;2209;48.982;8.406;2022-12-18T08:54:46;53.03;;;26.63;;
4389;SDS011;2209;48.982;8.406;2022-12-18T08:57:08;57.30;;;29.07;;
4389;SDS011;2209;48.982;8.406;2022-12-18T08:59:30;59.07;;;30.70;;
4389;SDS011;2209;48.982;8.406;2022-12-18T09:01:53;56.07;;;28.17;;
4389;SDS011;2209;48.982;8.406;2022-12-18T09:04:15;53.37;;;28.90;;
4389;SDS011;2209;48.982;8.406;2022-12-18T09:06:38;55.30;;;27.97;;
4389;SDS011;2209;48.982;8.406;2022-12-18T09:09:02;54.43;;;30.20;;
4389;SDS011;2209;48.982;8.406;2022-12-18T09:11:24;55.73;;;27.53;;
4389;SDS011;2209;48.982;8.406;2022-12-18T09:13:49;49.97;;;27.97;;
4389;SDS011;2209;48.982;8.406;2022-12-18T09:16:11;61.27;;;30.70;;
4389;SDS011;2209;48.982;8.406;2022-12-18T09:18:36;54.90;;;28.77;;
4389;SDS011;2209;48.982;8.406;2022-12-18T09:20:59;53.07;;;31.00;;
4389;SDS011;2209;48.982;8.406;2022-12-18T09:23:21;58.20;;;28.80;;
4389;SDS011;2209;48.982;8.406;2022-12-18T09:25:44;65.77;;;30.43;;
4389;SDS011;2209;48.982;8.406;2022-12-18T09:28:09;55.37;;;29.47;;
4389;SDS011;2209;48.982;8.406;2022-12-18T09:30:37;55.90;;;29.17;;
4389;SDS011;2209;48.982;8.406;2022-12-18T09:32:59;73.53;;;31.37;;
4389;SDS011;2209;48.982;8.406;2022-12-18T09:35:21;56.40;;;29.80;;
4389;SDS011;2209;48.982;8.406;2022-12-18T09:37:44;58.37;;;30.80;;
4389;SDS011;2209;48.982;8.406;2022-12-18T09:40:06;59.67;;;31.00;;
4389;SDS011;2209;48.982;8.406;2022-12-18T09:42:35;54.70;;;30.90;;
4389;SDS011;2209;48.982;8.406;2022-12-18T09:44:57;60.80;;;31.83;;
4389;SDS011;2209;48.982;8.406;2022-12-18T09:47:22;56.33;;;30.60;;
4389;SDS011;2209;48.982;8.406;2022-12-18T09:49:47;56.33;;;31.47;;
4389;SDS011;2209;48.982;8.406;2022-12-18T09:52:14;50.77;;;28.67;;
4389;SDS011;2209;48.982;8.406;2022-12-18T09:54:46;53.20;;;30.10;;
4389;SDS011;2209;48.982;8.406;2022-12-18T09:57:13;64.13;;;31.20;;
4389;SDS011;2209;48.982;8.406;2022-12-18T09:59:38;54.00;;;29.80;;
4389;SDS011;2209;48.982;8.406;2022-12-18T10:02:11;51.10;;;30.83;;
4389;SDS011;2209;48.982;8.406;2022-12-18T10:04:39;59.97;;;31.57;;
4389;SDS011;2209;48.982;8.406;2022-12-18T10:07:02;61.10;;;32.10;;
4389;SDS011;2209;48.982;8.406;2022-12-18T10:09:33;62.20;;;32.90;;
4389;SDS011;2209;48.982;8.406;2022-12-18T10:12:02;60.30;;;33.20;;
4389;SDS011;2209;48.982;8.406;2022-12-18T10:14:30;71.77;;;32.00;;
4389;SDS011;2209;48.982;8.406;2022-12-18T10:17:00;57.40;;;29.87;;
4389;SDS011;2209;48.982;8.406;2022-12-18T10:19:34;59.23;;;31.97;;
4389;SDS011;2209;48.982;8.406;2022-12-18T10:22:15;60.97;;;32.60;;
4389;SDS011;2209;48.982;8.406;2022-12-18T10:24:58;58.67;;;33.53;;
4389;SDS011;2209;48.982;8.406;2022-12-18T10:27:25;63.63;;;31.97;;
4389;SDS011;2209;48.982;8.406;2022-12-18T10:29:48;58.17;;;29.50;;
4389;SDS011;2209;48.982;8.406;2022-12-18T10:32:14;55.70;;;29.53;;
4389;SDS011;2209;48.982;8.406;2022-12-18T10:34:37;55.60;;;28.23;;
4389;SDS011;2209;48.982;8.406;2022-12-18T10:36:59;57.33;;;30.07;;
4389;SDS011;2209;48.982;8.406;2022-12-18T10:39:25;47.00;;;28.30;;
4389;SDS011;2209;48.982;8.406;2022-12-18T10:41:50;54.50;;;29.17;;
4389;SDS011;2209;48.982;8.406;2022-12-18T10:44:16;58.80;;;29.30;;
4389;SDS011;2209;48.982;8.406;2022-12-18T10:46:39;53.90;;;31.27;;
4389;SDS011;2209;48.982;8.406;2022-12-18T10:52:22;65.67;;;33.20;;
4389;SDS011;2209;48.982;8.406;2022-12-18T10:54:48;60.70;;;31.90;;
4389;SDS011;2209;48.982;8.406;2022-12-18T10:57:16;66.13;;;33.90;;
4389;SDS011;2209;48.982;8.406;2022-12-18T10:59:51;65.47;;;32.00;;
4389;SDS011;2209;48.982;8.406;2022-12-18T11:02:24;60.10;;;31.50;;
4389;SDS011;2209;48.982;8.406;2022-12-18T11:04:50;65.03;;;31.83;;
4389;SDS011;2209;48.982;8.406;2022-12-18T11:07:13;70.27;;;31.53;;
4389;SDS011;2209;48.982;8.406;2022-12-18T11:09:38;70.83;;;33.40;;
4389;SDS011;2209;48.982;8.406;2022-12-18T11:12:03;60.63;;;32.60;;
4389;SDS011;2209;48.982;8.406;2022-12-18T11:14:28;54.60;;;31.20;;
4389;SDS011;2209;48.982;8.406;2022-12-18T11:16:53;62.13;;;31.70;;
4389;SDS011;2209;48.982;8.406;2022-12-18T11:19:21;76.47;;;33.10;;
4389;SDS011;2209;48.982;8.406;2022-12-18T11:21:53;62.20;;;31.90;;
4389;SDS011;2209;48.982;8.406;2022-12-18T11:24:19;64.20;;;33.87;;
4389;SDS011;2209;48.982;8.406;2022-12-18T11:26:48;59.23;;;32.10;;
4389;SDS011;2209;48.982;8.406;2022-12-18T11:29:15;61.00;;;32.83;;
4389;SDS011;2209;48.982;8.406;2022-12-18T11:31:39;63.70;;;34.80;;
4389;SDS011;2209;48.982;8.406;2022-12-18T11:34:03;65.10;;;33.70;;
4389;SDS011;2209;48.982;8.406;2022-12-18T11:36:34;53.50;;;29.77;;
4389;SDS011;2209;48.982;8.406;2022-12-18T11:39:05;69.73;;;35.90;;
4389;SDS011;2209;48.982;8.406;2022-12-18T11:41:34;63.27;;;35.40;;
4389;SDS011;2209;48.982;8.406;2022-12-18T11:44:22;58.57;;;33.03;;
4389;SDS011;2209;48.982;8.406;2022-12-18T11:46:51;66.80;;;33.80;;
4389;SDS011;2209;48.982;8.406;2022-12-18T11:49:20;64.47;;;33.73;;
4389;SDS011;2209;48.982;8.406;2022-12-18T11:51:48;60.63;;;32.87;;
4389;SDS011;2209;48.982;8.406;2022-12-18T11:54:16;67.57;;;33.47;;
4389;SDS011;2209;48.982;8.406;2022-12-18T11:56:40;63.07;;;33.47;;
4389;SDS011;2209;48.982;8.406;2022-12-18T11:59:09;57.10;;;29.33;;
4389;SDS011;2209;48.982;8.406;2022-12-18T12:01:45;54.97;;;30.10;;
4389;SDS011;2209;48.982;8.406;2022-12-18T12:04:20;61.50;;;31.30;;
4389;SDS011;2209;48.982;8.406;2022-12-18T12:07:04;60.37;;;31.07;;
4389;SDS011;2209;48.982;8.406;2022-12-18T12:09:38;62.57;;;30.60;;
4389;SDS011;2209;48.982;8.406;2022-12-18T12:12:14;57.50;;;30.70;;
4389;SDS011;2209;48.982;8.406;2022-12-18T12:14:49;59.43;;;30.80;;
4389;SDS011;2209;48.982;8.406;2022-12-18T12:17:24;60.63;;;31.27;;
4389;SDS011;2209;48.982;8.406;2022-12-18T12:19:56;56.73;;;30.30;;
4389;SDS011;2209;48.982;8.406;2022-12-18T12:22:28;63.97;;;31.17;;
4389;SDS011;2209;48.982;8.406;2022-12-18T12:25:02;66.43;;;30.67;;
4389;SDS011;2209;48.982;8.406;2022-12-18T12:27:44;57.53;;;29.70;;
4389;SDS011;2209;48.982;8.406;2022-12-18T12:30:20;58.80;;;30.97;;
4389;SDS011;2209;48.982;8.406;2022-12-18T12:32:52;65.27;;;34.03;;
4389;SDS011;2209;48.982;8.406;2022-12-18T12:35:29;67.87;;;33.50;;
4389;SDS011;2209;48.982;8.406;2022-12-18T12:38:05;56.13;;;31.90;;
4389;SDS011;2209;48.982;8.406;2022-12-18T12:40:33;55.87;;;32.03;;
4389;SDS011;2209;48.982;8.406;2022-12-18T12:43:00;71.70;;;34.40;;
4389;SDS011;2209;48.982;8.406;2022-12-18T12:45:36;62.97;;;32.37;;
4389;SDS011;2209;48.982;8.406;2022-12-18T12:48:04;64.87;;;33.97;;
4389;SDS011;2209;48.982;8.406;2022-12-18T12:50:35;58.63;;;33.43;;
4389;SDS011;2209;48.982;8.406;2022-12-18T12:53:01;60.20;;;33.70;;
4389;SDS011;2209;48.982;8.406;2022-12-18T12:55:27;62.60;;;32.43;;
4389;SDS011;2209;48.982;8.406;2022-12-18T12:57:54;62.47;;;31.60;;
4389;SDS011;2209;48.982;8.406;2022-12-18T13:00:21;61.63;;;33.17;;
4389;SDS011;2209;48.982;8.406;2022-12-18T13:02:46;63.40;;;32.90;;
4389;SDS011;2209;48.982;8.406;2022-12-18T13:05:16;62.63;;;31.93;;
4389;SDS011;2209;48.982;8.406;2022-12-18T13:07:45;66.47;;;34.17;;
4389;SDS011;2209;48.982;8.406;2022-12-18T13:10:24;73.07;;;34.50;;
4389;SDS011;2209;48.982;8.406;2022-12-18T13:12:56;60.77;;;32.47;;
4389;SDS011;2209;48.982;8.406;2022-12-18T13:15:20;66.17;;;33.70;;
4389;SDS011;2209;48.982;8.406;2022-12-18T13:17:44;68.13;;;32.30;;
4389;SDS011;2209;48.982;8.406;2022-12-18T13:20:08;60.47;;;31.80;;
4389;SDS011;2209;48.982;8.406;2022-12-18T13:22:34;57.80;;;31.30;;
4389;SDS011;2209;48.982;8.406;2022-12-18T13:24:58;65.23;;;31.70;;
4389;SDS011;2209;48.982;8.406;2022-12-18T13:36:00;58.10;;;33.83;;
4389;SDS011;2209;48.982;8.406;2022-12-18T13:38:32;65.97;;;32.80;;
4389;SDS011;2209;48.982;8.406;2022-12-18T13:40:56;63.50;;;32.30;;
4389;SDS011;2209;48.982;8.406;2022-12-18T13:43:22;63.93;;;32.53;;
4389;SDS011;2209;48.982;8.406;2022-12-18T13:45:48;60.40;;;32.67;;
4389;SDS011;2209;48.982;8.406;2022-12-18T13:48:23;67.97;;;32.80;;
4389;SDS011;2209;48.982;8.406;2022-12-18T13:50:52;56.57;;;32.77;;
4389;SDS011;2209;48.982;8.406;2022-12-18T13:53:19;58.93;;;33.63;;
4389;SDS011;2209;48.982;8.406;2022-12-18T13:59:09;72.50;;;34.40;;
4389;SDS011;2209;48.982;8.406;2022-12-18T14:01:44;57.20;;;31.30;;
4389;SDS011;2209;48.982;8.406;2022-12-18T14:04:09;60.63;;;32.70;;
4389;SDS011;2209;48.982;8.406;2022-12-18T14:06:33;51.63;;;32.00;;
4389;SDS011;2209;48.982;8.406;2022-12-18T14:08:56;54.30;;;30.93;;
4389;SDS011;2209;48.982;8.406;2022-12-18T14:11:22;59.93;;;31.37;;
4389;SDS011;2209;48.982;8.406;2022-12-18T14:13:45;51.40;;;31.60;;
4389;SDS011;2209;48.982;8.406;2022-12-18T14:16:13;65.57;;;34.77;;
4389;SDS011;2209;48.982;8.406;2022-12-18T14:18:38;61.80;;;33.40;;
4389;SDS011;2209;48.982;8.406;2022-12-18T14:21:15;54.53;;;31.93;;
4389;SDS011;2209;48.982;8.406;2022-12-18T14:23:41;58.17;;;33.03;;
4389;SDS011;2209;48.982;8.406;2022-12-18T14:26:19;68.33;;;33.83;;
4389;SDS011;2209;48.982;8.406;2022-12-18T14:28:43;61.30;;;33.60;;
4389;SDS011;2209;48.982;8.406;2022-12-18T14:31:16;58.50;;;31.47;;
4389;SDS011;2209;48.982;8.406;2022-12-18T14:33:40;65.83;;;33.80;;
4389;SDS011;2209;48.982;8.406;2022-12-18T14:36:03;62.53;;;34.00;;
4389;SDS011;2209;48.982;8.406;2022-12-18T14:38:27;61.80;;;32.10;;
4389;SDS011;2209;48.982;8.406;2022-12-18T14:40:54;61.43;;;33.07;;
4389;SDS011;2209;48.982;8.406;2022-12-18T14:43:17;60.13;;;32.23;;
4389;SDS011;2209;48.982;8.406;2022-12-18T14:45:40;66.90;;;33.57;;
4389;SDS011;2209;48.982;8.406;2022-12-18T14:48:07;54.13;;;31.93;;
4389;SDS011;2209;48.982;8.406;2022-12-18T14:50:33;58.40;;;31.33;;
4389;SDS011;2209;48.982;8.406;2022-12-18T14:52:56;55.07;;;32.50;;